Time;durP1;ratioP1;P1;durP2;ratioP2;P2;SDS_P1;SDS_P2;PMS_P1;PMS_P2;Temp;Humidity;BMP_temperature;BMP_pressure;BME280_temperature;BME280_humidity;BME280_pressure;Samples;Min_cycle;Max_cycle;Signal;HPM_P1;HPM_P2
2022/03/03 00:01:52;;;;;;;;;55.00;49.00;;;;;4.38;50.92;99613.91;5019913;28;8872;-77
2022/03/03 00:04:21;;;;;;;;;61.50;48.75;;;;;4.73;50.28;99615.63;5019729;28;8866;-77
2022/03/03 00:06:50;;;;;;;;;70.25;54.00;;;;;4.51;50.24;99621.97;4997445;28;8878;-83
2022/03/03 00:09:18;;;;;;;;;68.25;53.75;;;;;4.18;51.26;99621.13;4995583;28;8870;-78
2022/03/03 00:11:47;;;;;;;;;68.75;57.75;;;;;4.37;50.97;99614.75;4996220;28;8900;-80
2022/03/03 00:14:15;;;;;;;;;67.25;54.75;;;;;4.56;50.53;99615.22;5028251;28;8870;-80
2022/03/03 00:16:44;;;;;;;;;67.50;53.50;;;;;4.67;50.25;99603.44;4995621;28;8880;-80
2022/03/03 00:19:15;;;;;;;;;61.50;49.25;;;;;4.88;49.77;99621.16;4965841;28;8973;-77
2022/03/03 00:21:44;;;;;;;;;61.00;49.25;;;;;4.88;49.38;99621.16;5017358;28;8866;-82
2022/03/03 00:24:13;;;;;;;;;64.50;46.00;;;;;4.88;49.12;99618.56;5010906;28;8955;-79
2022/03/03 00:26:42;;;;;;;;;74.50;57.25;;;;;4.81;49.23;99609.78;5010774;28;9650;-79
2022/03/03 00:29:11;;;;;;;;;70.00;53.50;;;;;4.66;50.41;99612.88;4999095;28;8887;-80
2022/03/03 00:31:40;;;;;;;;;72.00;57.00;;;;;4.82;49.41;99611.53;5012505;28;8979;-79
2022/03/03 00:34:09;;;;;;;;;65.25;54.25;;;;;4.17;50.96;99614.22;4989047;28;9029;-79
2022/03/03 00:36:39;;;;;;;;;69.50;55.50;;;;;4.34;50.58;99614.66;4973353;28;9017;-80
2022/03/03 00:39:07;;;;;;;;;75.00;59.50;;;;;4.32;50.89;99620.63;4973488;28;8868;-80
2022/03/03 00:41:37;;;;;;;;;70.75;56.75;;;;;4.20;51.04;99611.72;4957943;28;9661;-78
2022/03/03 00:44:06;;;;;;;;;75.50;59.50;;;;;4.48;50.07;99596.94;4989323;28;8943;-79
2022/03/03 00:46:35;;;;;;;;;73.25;59.50;;;;;4.58;49.96;99601.50;4973225;28;8864;-78
2022/03/03 00:49:05;;;;;;;;;73.25;57.75;;;;;4.83;49.35;99605.53;4989582;28;8957;-78
2022/03/03 00:51:34;;;;;;;;;77.50;61.75;;;;;4.86;49.90;99607.31;4973139;28;8965;-80
2022/03/03 00:54:04;;;;;;;;;70.33;59.33;;;;;4.85;49.86;99611.59;4976806;28;9003;-79
2022/03/03 00:56:33;;;;;;;;;72.67;60.00;;;;;4.68;50.69;99602.59;4985189;28;8949;-79
2022/03/03 00:59:01;;;;;;;;;77.33;62.00;;;;;4.87;49.81;99606.47;4972919;28;9057;-81
2022/03/03 01:01:30;;;;;;;;;64.00;50.67;;;;;5.04;49.66;99609.44;4989035;28;9183;-80
2022/03/03 01:04:00;;;;;;;;;85.33;63.33;;;;;4.44;50.99;99608.00;4989141;28;9124;-79
2022/03/03 01:06:28;;;;;;;;;79.00;61.33;;;;;4.72;50.69;99611.28;4992015;28;9874;-82
2022/03/03 01:08:57;;;;;;;;;80.33;63.00;;;;;4.44;51.00;99613.19;4981042;28;10015;-80
2022/03/03 01:11:27;;;;;;;;;75.33;62.00;;;;;4.82;50.65;99602.91;5009163;28;8974;-79
2022/03/03 01:13:56;;;;;;;;;75.00;60.67;;;;;5.04;50.36;99604.28;4962429;28;9051;-79
2022/03/03 01:16:24;;;;;;;;;84.67;66.00;;;;;4.83;50.35;99597.78;4989719;28;9042;-79
2022/03/03 01:18:53;;;;;;;;;76.25;62.00;;;;;5.08;49.25;99599.22;5009791;28;9057;-80
2022/03/03 01:21:22;;;;;;;;;84.67;66.00;;;;;5.23;48.71;99593.50;4993941;28;8971;-79
2022/03/03 01:23:51;;;;;;;;;75.67;61.33;;;;;5.33;48.87;99593.69;5011418;28;9100;-79
2022/03/03 01:26:22;;;;;;;;;78.67;64.00;;;;;5.46;48.59;99582.75;4976562;28;9023;-81
2022/03/03 01:28:53;;;;;;;;;78.00;64.00;;;;;5.50;48.05;99586.28;5009416;28;9208;-80
2022/03/03 01:31:22;;;;;;;;;85.00;65.67;;;;;5.45;48.62;99578.44;4990202;28;9104;-78
2022/03/03 01:33:51;;;;;;;;;82.00;65.00;;;;;5.43;48.18;99581.00;5007058;28;9964;-80
2022/03/03 01:36:19;;;;;;;;;82.25;64.00;;;;;5.42;48.50;99581.81;5009026;28;9445;-79
2022/03/03 01:38:48;;;;;;;;;82.33;64.00;;;;;5.22;48.70;99580.56;5010495;28;8985;-81
2022/03/03 01:41:17;;;;;;;;;79.33;61.00;;;;;4.84;49.76;99585.75;5009634;28;9187;-80
2022/03/03 01:43:46;;;;;;;;;80.67;63.67;;;;;5.00;49.02;99582.66;5009011;28;8954;-80
2022/03/03 01:46:16;;;;;;;;;77.00;62.33;;;;;5.03;48.88;99574.97;5010659;28;9090;-79
2022/03/03 01:48:46;;;;;;;;;77.00;63.33;;;;;4.80;49.32;99583.91;5010420;28;8973;-80
2022/03/03 01:51:15;;;;;;;;;78.00;63.67;;;;;4.84;49.08;99590.91;5009228;28;9318;-79
2022/03/03 01:53:44;;;;;;;;;71.33;58.00;;;;;4.99;49.16;99583.50;5008593;28;9685;-80
2022/03/03 01:56:13;;;;;;;;;94.00;67.00;;;;;5.11;48.87;99567.41;4992548;28;9020;-81
2022/03/03 01:58:42;;;;;;;;;70.67;57.00;;;;;5.23;48.64;99574.53;4992675;28;9005;-80
2022/03/03 02:01:12;;;;;;;;;73.00;58.50;;;;;5.31;47.56;99574.69;4959781;28;8970;-78
2022/03/03 02:03:42;;;;;;;;;70.00;58.67;;;;;4.71;48.54;99581.09;4999654;28;8895;-79
2022/03/03 02:06:10;;;;;;;;;77.33;64.33;;;;;4.88;48.22;99570.34;5005091;28;9046;-79
2022/03/03 02:08:40;;;;;;;;;71.50;57.75;;;;;4.73;48.59;99569.13;5008774;28;8939;-79
2022/03/03 02:11:09;;;;;;;;;75.50;59.25;;;;;4.86;48.35;99572.03;5008402;28;9616;-79
2022/03/03 02:13:38;;;;;;;;;70.00;57.25;;;;;5.01;47.76;99562.84;4992373;28;8873;-81
2022/03/03 02:16:08;;;;;;;;;73.75;59.50;;;;;4.88;47.83;99565.16;5008601;28;8877;-80
2022/03/03 02:18:42;;;;;;;;;69.25;57.50;;;;;5.08;47.75;99556.97;5008887;28;8862;-80
2022/03/03 02:21:13;;;;;;;;;71.25;56.00;;;;;5.02;47.34;99564.59;4940359;28;8895;-79
2022/03/03 02:23:42;;;;;;;;;69.50;56.25;;;;;4.97;47.47;99559.34;4982768;28;8862;-81
2022/03/03 02:26:14;;;;;;;;;70.25;56.25;;;;;4.78;47.88;99562.34;4979250;28;8862;-79
2022/03/03 02:28:43;;;;;;;;;67.00;53.75;;;;;4.94;47.60;99561.84;5009186;28;9009;-80
2022/03/03 02:31:12;;;;;;;;;73.25;59.50;;;;;4.98;47.46;99560.22;5009029;28;8865;-79
2022/03/03 02:33:41;;;;;;;;;76.00;61.25;;;;;5.09;47.73;99553.56;5009084;28;8862;-79
2022/03/03 02:36:22;;;;;;;;;73.75;59.75;;;;;5.19;46.84;99563.25;5031897;28;8984;-82
2022/03/03 02:38:53;;;;;;;;;69.50;57.25;;;;;5.34;46.57;99557.53;4999919;28;9070;-80
2022/03/03 02:41:24;;;;;;;;;77.25;60.25;;;;;5.02;46.58;99560.31;4998190;28;10261;-79
2022/03/03 02:43:53;;;;;;;;;72.00;58.25;;;;;5.14;46.70;99554.53;5009236;28;8916;-79
2022/03/03 02:46:22;;;;;;;;;76.50;60.25;;;;;4.92;47.48;99557.50;5009090;28;8902;-81
2022/03/03 02:48:52;;;;;;;;;74.00;56.75;;;;;4.57;48.18;99549.81;4993873;28;8878;-81
2022/03/03 02:51:23;;;;;;;;;74.75;55.75;;;;;4.26;48.64;99549.94;5009159;28;8866;-82
2022/03/03 02:53:52;;;;;;;;;68.50;56.50;;;;;4.43;48.16;99552.06;4992271;28;8882;-79
2022/03/03 02:56:21;;;;;;;;;69.75;55.75;;;;;4.61;47.90;99555.09;4990680;28;8851;-82
2022/03/03 02:58:48;;;;;;;;;73.25;58.00;;;;;4.69;47.44;99555.25;4974713;28;8867;-80
2022/03/03 03:01:17;;;;;;;;;73.25;57.50;;;;;4.46;48.49;99546.94;4990431;28;8895;-79
2022/03/03 03:03:47;;;;;;;;;76.25;60.25;;;;;4.53;47.94;99546.28;4990888;28;9671;-79
2022/03/03 03:06:16;;;;;;;;;70.00;55.75;;;;;4.64;47.90;99549.13;4994190;28;8875;-81
2022/03/03 03:08:46;;;;;;;;;66.50;55.00;;;;;4.66;47.69;99547.44;4995438;28;8871;-79
2022/03/03 03:11:15;;;;;;;;;69.00;56.25;;;;;4.87;47.68;99545.31;4993100;28;8859;-80
2022/03/03 03:13:43;;;;;;;;;70.25;56.00;;;;;5.03;47.55;99530.19;4974831;28;8895;-80
2022/03/03 03:16:12;;;;;;;;;71.50;55.75;;;;;4.95;47.73;99532.56;4958364;28;8875;-80
2022/03/03 03:18:41;;;;;;;;;67.50;53.25;;;;;5.08;47.45;99538.88;4943246;28;9712;-80
2022/03/03 03:21:10;;;;;;;;;66.75;56.00;;;;;5.06;47.44;99537.97;5006614;28;8898;-81
2022/03/03 03:23:39;;;;;;;;;64.75;52.50;;;;;5.22;47.45;99544.38;5005503;28;8911;-80
2022/03/03 03:26:09;;;;;;;;;59.75;49.75;;;;;5.25;46.39;99540.13;4991766;28;8893;-79
2022/03/03 03:28:38;;;;;;;;;69.75;57.50;;;;;4.89;47.37;99545.38;4984487;28;12536;-80
2022/03/03 03:31:06;;;;;;;;;68.50;56.25;;;;;4.73;47.42;99545.88;4987722;28;8861;-81
2022/03/03 03:33:35;;;;;;;;;60.50;50.25;;;;;4.98;47.18;99537.81;5021331;28;8840;-77
2022/03/03 03:36:04;;;;;;;;;63.25;48.50;;;;;5.04;46.58;99535.38;5008660;28;8855;-79
2022/03/03 03:38:33;;;;;;;;;67.00;55.50;;;;;5.17;46.46;99540.81;4946806;28;8866;-81
2022/03/03 03:41:02;;;;;;;;;72.50;56.50;;;;;5.27;46.87;99537.56;5010177;28;8908;-78
2022/03/03 03:43:32;;;;;;;;;59.25;51.50;;;;;5.20;46.39;99536.56;4981156;28;8884;-77
2022/03/03 03:46:01;;;;;;;;;66.50;55.50;;;;;5.24;46.54;99540.97;4997214;28;8868;-81
2022/03/03 03:48:30;;;;;;;;;70.50;54.75;;;;;5.35;46.33;99533.44;5009745;28;9623;-80
2022/03/03 03:50:59;;;;;;;;;65.00;54.25;;;;;5.43;46.21;99538.75;4991642;28;8868;-80
2022/03/03 03:53:28;;;;;;;;;63.25;51.50;;;;;5.24;46.35;99533.22;4997509;28;8862;-80
2022/03/03 03:55:57;;;;;;;;;67.00;53.75;;;;;5.37;46.12;99533.44;4995184;28;8894;-80
2022/03/03 03:58:25;;;;;;;;;69.25;53.25;;;;;5.40;45.89;99536.97;4936956;28;8883;-80
2022/03/03 04:00:55;;;;;;;;;40.75;39.50;;;;;5.45;46.16;99542.25;4953652;28;9600;-81
2022/03/03 04:03:25;;;;;;;;;63.75;52.75;;;;;5.47;45.78;99527.63;4980369;28;8858;-81
2022/03/03 04:05:53;;;;;;;;;60.25;49.50;;;;;5.06;47.04;99533.69;4945500;28;8889;-81
2022/03/03 04:08:22;;;;;;;;;67.25;54.25;;;;;4.68;46.83;99536.28;4938176;28;8870;-82
2022/03/03 04:10:51;;;;;;;;;64.50;52.75;;;;;4.77;46.87;99539.94;4950280;28;8890;-79
2022/03/03 04:13:21;;;;;;;;;67.25;53.50;;;;;4.96;46.62;99530.88;4969276;28;8842;-82
2022/03/03 04:15:49;;;;;;;;;61.00;49.75;;;;;5.00;46.75;99530.97;4978095;28;8964;-81
2022/03/03 04:18:20;;;;;;;;;68.50;52.25;;;;;4.87;46.98;99529.81;5011725;28;8854;-80
2022/03/03 04:20:49;;;;;;;;;64.50;52.75;;;;;4.83;46.63;99522.00;5016741;28;8964;-79
2022/03/03 04:23:19;;;;;;;;;63.00;51.75;;;;;4.65;46.73;99532.75;4996878;28;8866;-80
2022/03/03 04:25:48;;;;;;;;;66.75;55.75;;;;;4.83;47.01;99528.00;5015201;28;8985;-80
2022/03/03 04:28:17;;;;;;;;;77.25;57.25;;;;;4.50;47.09;99525.56;5011771;28;8886;-80
2022/03/03 04:30:45;;;;;;;;;85.33;66.67;;;;;4.41;47.35;99525.34;5011788;28;8828;-80
2022/03/03 04:33:14;;;;;;;;;65.00;53.00;;;;;4.38;47.19;99520.94;4973571;28;9598;-80
2022/03/03 04:35:52;;;;;;;;;61.50;51.25;;;;;4.40;47.29;99521.00;4973497;28;8981;-79
2022/03/03 04:38:21;;;;;;;;;57.25;48.00;;;;;4.40;47.00;99514.13;4921787;28;9703;-80
2022/03/03 04:40:50;;;;;;;;;57.50;50.00;;;;;4.40;46.79;99513.25;4961006;28;8860;-82
2022/03/03 04:43:18;;;;;;;;;63.00;50.75;;;;;4.50;46.58;99512.66;4928595;28;9678;-80
2022/03/03 04:45:47;;;;;;;;;64.00;53.50;;;;;4.63;46.71;99503.44;4952335;28;8894;-79
2022/03/03 04:48:16;;;;;;;;;59.50;49.75;;;;;4.69;46.34;99503.59;4953220;28;8860;-81
2022/03/03 04:50:45;;;;;;;;;61.75;49.75;;;;;4.73;45.92;99499.38;4933342;28;8844;-79
2022/03/03 04:53:15;;;;;;;;;59.25;49.50;;;;;4.61;46.10;99502.53;4949339;28;8962;-78
2022/03/03 04:55:44;;;;;;;;;63.25;49.25;;;;;4.34;46.23;99502.78;4920496;28;8907;-80
2022/03/03 04:58:13;;;;;;;;;67.00;53.50;;;;;4.27;46.20;99509.50;4934192;28;8996;-80
2022/03/03 05:00:42;;;;;;;;;60.50;46.25;;;;;3.95;47.03;99508.72;4936634;28;8883;-79
2022/03/03 05:03:11;;;;;;;;;55.75;43.75;;;;;4.10;46.90;99507.41;4959679;28;8867;-78
2022/03/03 05:05:40;;;;;;;;;46.00;43.75;;;;;4.15;47.25;99504.06;4984691;28;9634;-79
2022/03/03 05:08:08;;;;;;;;;55.00;46.25;;;;;3.87;47.16;99505.94;4934861;28;8879;-78
2022/03/03 05:10:38;;;;;;;;;62.50;48.00;;;;;3.99;47.30;99492.47;5002687;28;8950;-79
2022/03/03 05:13:08;;;;;;;;;60.75;47.75;;;;;3.66;47.83;99495.94;4997982;28;8883;-79
2022/03/03 05:15:37;;;;;;;;;61.50;49.00;;;;;3.79;47.47;99503.16;4990266;28;8893;-78
2022/03/03 05:18:06;;;;;;;;;57.50;48.50;;;;;3.58;47.96;99500.88;4995738;28;8961;-79
2022/03/03 05:20:36;;;;;;;;;59.75;50.75;;;;;3.82;47.52;99500.66;4994383;28;8997;-79
2022/03/03 05:23:05;;;;;;;;;56.50;47.25;;;;;3.78;47.60;99501.44;4978932;28;8879;-79
2022/03/03 05:25:34;;;;;;;;;51.75;47.25;;;;;3.65;47.98;99502.81;4986368;28;8899;-80
2022/03/03 05:28:05;;;;;;;;;53.25;46.25;;;;;3.65;47.72;99500.22;4994912;28;9552;-81
2022/03/03 05:30:34;;;;;;;;;64.00;53.25;;;;;3.71;47.55;99502.09;4965319;28;8885;-81
2022/03/03 05:33:07;;;;;;;;;64.25;52.00;;;;;3.65;47.68;99494.22;4982143;28;9949;-80
2022/03/03 05:35:37;;;;;;;;;59.00;52.00;;;;;3.69;47.54;99496.91;5007012;28;8854;-80
2022/03/03 05:38:05;;;;;;;;;58.25;49.50;;;;;3.63;47.50;99493.25;5004424;28;8882;-79
2022/03/03 05:40:34;;;;;;;;;57.75;49.25;;;;;3.70;47.13;99493.50;5015838;28;8881;-80
2022/03/03 05:43:05;;;;;;;;;62.50;50.25;;;;;3.80;47.16;99496.28;5025493;28;8893;-81
2022/03/03 05:45:40;;;;;;;;;62.25;50.00;;;;;3.65;47.05;99496.78;4992971;28;8870;-80
2022/03/03 05:48:11;;;;;;;;;79.33;63.00;;;;;3.85;47.04;99493.00;4993133;28;8941;-79
2022/03/03 05:50:39;;;;;;;;;73.25;58.50;;;;;3.85;46.41;99498.16;5009391;28;9042;-81
2022/03/03 05:53:08;;;;;;;;;50.50;46.50;;;;;3.68;47.24;99496.84;4991106;28;8904;-78
2022/03/03 05:55:42;;;;;;;;;58.25;51.00;;;;;3.82;46.65;99502.34;4972064;28;8856;-78
2022/03/03 05:58:16;;;;;;;;;61.00;51.00;;;;;3.77;46.70;99503.97;4969132;28;8899;-79
2022/03/03 06:00:47;;;;;;;;;58.75;50.50;;;;;3.63;47.31;99501.91;4950464;28;8871;-78
2022/03/03 06:03:19;;;;;;;;;51.00;46.00;;;;;3.57;47.33;99495.69;4974725;28;8847;-79
2022/03/03 06:05:51;;;;;;;;;60.00;50.25;;;;;3.67;46.86;99508.00;4966801;28;9838;-78
2022/03/03 06:08:27;;;;;;;;;58.50;47.25;;;;;3.37;47.95;99498.59;4969629;28;8878;-78
2022/03/03 06:11:01;;;;;;;;;54.75;46.75;;;;;3.53;47.57;99501.59;4969918;28;8868;-80
2022/03/03 06:13:37;;;;;;;;;56.25;45.75;;;;;3.63;47.32;99503.56;4967786;28;8859;-79
2022/03/03 06:16:09;;;;;;;;;60.50;48.75;;;;;3.76;47.49;99497.03;4957544;28;9565;-79
2022/03/03 06:18:39;;;;;;;;;55.25;46.25;;;;;3.84;46.78;99506.75;4953757;28;8876;-80
2022/03/03 06:21:08;;;;;;;;;62.25;52.75;;;;;3.81;46.57;99503.19;4970537;28;8878;-79
2022/03/03 06:23:37;;;;;;;;;58.25;47.50;;;;;3.67;47.30;99508.00;4974547;28;9065;-78
2022/03/03 06:26:09;;;;;;;;;67.50;51.00;;;;;3.62;47.20;99507.00;4976712;28;8881;-78
2022/03/03 06:28:40;;;;;;;;;53.00;46.25;;;;;3.51;47.73;99507.56;4994428;28;8917;-78
2022/03/03 06:31:09;;;;;;;;;57.00;48.25;;;;;2.85;49.04;99510.84;4999814;28;8878;-81
2022/03/03 06:33:38;;;;;;;;;52.50;46.50;;;;;2.87;49.59;99516.06;4987355;28;8912;-79
2022/03/03 06:36:08;;;;;;;;;58.75;47.25;;;;;2.79;49.58;99513.25;4978123;28;8928;-80
2022/03/03 06:38:37;;;;;;;;;61.50;47.75;;;;;2.76;49.51;99523.47;4991945;28;8881;-82
2022/03/03 06:41:06;;;;;;;;;66.50;49.50;;;;;3.05;49.14;99519.19;4988000;28;8892;-80
2022/03/03 06:43:35;;;;;;;;;59.50;48.00;;;;;3.17;48.56;99515.22;4974246;28;8908;-80
2022/03/03 06:46:06;;;;;;;;;55.75;47.00;;;;;3.09;48.53;99513.28;4957449;28;8954;-82
2022/03/03 06:48:35;;;;;;;;;58.75;49.00;;;;;2.97;48.41;99512.94;4954072;28;8876;-79
2022/03/03 06:51:05;;;;;;;;;62.50;51.25;;;;;2.90;48.71;99511.00;4960337;28;8862;-79
2022/03/03 06:53:36;;;;;;;;;61.25;52.25;;;;;2.86;49.15;99504.03;4994315;28;8877;-78
2022/03/03 06:56:07;;;;;;;;;54.50;47.25;;;;;2.90;48.96;99511.00;4970562;28;9622;-78
2022/03/03 06:58:37;;;;;;;;;54.25;45.50;;;;;3.05;48.73;99515.75;4986329;28;8877;-81
2022/03/03 07:01:09;;;;;;;;;56.00;49.75;;;;;2.79;48.92;99512.41;4956537;28;8865;-78
2022/03/03 07:03:40;;;;;;;;;71.00;55.25;;;;;2.37;50.70;99520.53;4985591;28;8971;-78
2022/03/03 07:06:09;;;;;;;;;61.00;52.00;;;;;2.37;51.19;99525.69;4972193;28;8888;-80
2022/03/03 07:08:39;;;;;;;;;60.25;50.50;;;;;2.14;51.89;99536.97;4987774;28;9039;-79
2022/03/03 07:11:09;;;;;;;;;62.25;51.50;;;;;2.04;52.25;99539.19;4972881;28;8872;-79
2022/03/03 07:13:38;;;;;;;;;57.25;50.75;;;;;2.01;53.04;99534.81;4971856;28;8872;-79
2022/03/03 07:16:23;;;;;;;;;65.00;52.75;;;;;2.33;52.20;99532.44;4975778;28;8884;-79
2022/03/03 07:18:53;;;;;;;;;66.25;53.00;;;;;2.15;52.68;99535.25;5003083;28;8857;-78
2022/03/03 07:21:32;;;;;;;;;67.25;51.50;;;;;2.64;52.10;99529.09;4987845;28;8868;-78
2022/03/03 07:24:05;;;;;;;;;60.25;51.75;;;;;2.94;50.34;99528.28;4991709;28;8857;-81
2022/03/03 07:26:35;;;;;;;;;59.50;51.00;;;;;2.44;51.41;99530.19;4986889;28;9619;-71
2022/03/03 07:29:04;;;;;;;;;69.00;53.75;;;;;2.37;51.66;99534.28;4985794;28;9598;-70
2022/03/03 07:31:50;;;;;;;;;61.00;50.00;;;;;2.69;51.09;99531.84;5007570;28;8877;-73
2022/03/03 07:34:26;;;;;;;;;60.00;53.00;;;;;2.51;51.67;99522.72;5012189;28;8858;-70
2022/03/03 07:36:58;;;;;;;;;56.75;47.25;;;;;3.09;50.58;99523.59;4989464;28;8874;-73
2022/03/03 07:39:31;;;;;;;;;55.00;49.25;;;;;3.49;49.20;99524.72;4984941;28;8857;-70
2022/03/03 07:42:00;;;;;;;;;52.50;46.00;;;;;3.76;48.31;99525.41;5001447;28;9005;-70
2022/03/03 07:44:30;;;;;;;;;58.00;50.00;;;;;4.16;47.59;99524.75;5016999;28;8859;-71
2022/03/03 07:47:01;;;;;;;;;69.50;55.50;;;;;3.98;47.55;99527.72;5009744;28;8858;-74
2022/03/03 07:49:31;;;;;;;;;67.00;55.50;;;;;4.29;47.51;99520.72;5017014;28;9671;-76
2022/03/03 07:51:59;;;;;;;;;62.75;50.75;;;;;4.80;46.61;99519.31;4991988;28;8902;-73
2022/03/03 07:54:28;;;;;;;;;62.00;51.00;;;;;4.53;46.67;99512.69;5006313;28;8898;-74
2022/03/03 07:56:58;;;;;;;;;67.00;52.00;;;;;4.28;46.97;99521.59;5007238;28;8862;-71
2022/03/03 07:59:34;;;;;;;;;64.25;53.00;;;;;4.35;46.68;99522.59;5005959;28;8882;-72
2022/03/03 08:02:06;;;;;;;;;62.25;51.50;;;;;4.51;45.99;99524.72;4984730;28;8880;-74
2022/03/03 08:04:35;;;;;;;;;65.25;53.25;;;;;4.59;46.27;99519.72;5004056;28;9569;-73
2022/03/03 08:07:06;;;;;;;;;64.75;55.50;;;;;5.00;45.67;99519.78;4993772;28;8862;-71
2022/03/03 08:09:37;;;;;;;;;58.75;51.50;;;;;5.31;44.49;99517.81;5006974;28;8881;-72
2022/03/03 08:12:08;;;;;;;;;65.50;51.75;;;;;5.39;43.76;99511.97;5007315;28;8870;-72
2022/03/03 08:14:37;;;;;;;;;66.75;54.75;;;;;4.98;44.61;99521.44;5006857;28;8904;-71
2022/03/03 08:17:08;;;;;;;;;64.00;53.75;;;;;5.25;44.21;99513.38;5005804;28;8850;-71
2022/03/03 08:19:38;;;;;;;;;66.50;52.50;;;;;4.79;44.68;99530.50;5000617;28;9020;-71
2022/03/03 08:22:09;;;;;;;;;65.00;53.25;;;;;4.85;44.69;99518.59;5006072;28;8874;-71
2022/03/03 08:24:42;;;;;;;;;69.25;56.00;;;;;4.66;45.06;99519.03;5009939;28;9628;-73
2022/03/03 08:27:12;;;;;;;;;68.75;55.25;;;;;4.13;45.60;99519.50;5007496;28;8866;-72
2022/03/03 08:29:41;;;;;;;;;74.00;58.50;;;;;3.76;47.03;99528.00;5009583;28;8861;-73
2022/03/03 08:32:16;;;;;;;;;69.00;54.75;;;;;3.89;46.99;99527.47;5011062;28;8874;-74
2022/03/03 08:34:58;;;;;;;;;67.25;54.75;;;;;4.14;46.65;99510.94;5016351;28;8928;-77
2022/03/03 08:37:34;;;;;;;;;68.25;52.50;;;;;4.67;45.96;99511.31;5011186;28;9062;-74
2022/03/03 08:40:05;;;;;;;;;65.50;54.50;;;;;4.88;45.17;99512.63;4987682;28;9725;-74
2022/03/03 08:42:37;;;;;;;;;67.75;56.00;;;;;4.77;45.97;99511.53;5005846;28;8850;-72
2022/03/03 08:45:10;;;;;;;;;62.25;52.50;;;;;5.14;45.26;99504.53;5009654;28;8880;-76
2022/03/03 08:47:44;;;;;;;;;58.75;51.25;;;;;5.18;44.75;99504.66;5000113;28;8953;-72
2022/03/03 08:50:14;;;;;;;;;63.00;49.00;;;;;5.47;43.54;99497.47;5001049;28;8870;-73
2022/03/03 08:52:58;;;;;;;;;57.00;48.00;;;;;5.50;42.90;99494.06;5000924;28;8900;-73
2022/03/03 08:55:28;;;;;;;;;54.00;45.25;;;;;5.87;43.25;99502.50;5004178;28;8955;-75
2022/03/03 08:57:58;;;;;;;;;63.25;51.50;;;;;6.04;41.53;99484.69;5011022;28;9014;-73
2022/03/03 09:00:27;;;;;;;;;60.50;51.00;;;;;6.14;41.79;99494.34;5010593;28;8884;-74
2022/03/03 09:02:57;;;;;;;;;56.25;44.00;;;;;6.24;41.65;99485.03;5005652;28;8937;-77
2022/03/03 09:05:26;;;;;;;;;51.75;44.00;;;;;6.37;41.45;99486.06;5000599;28;8956;-77
2022/03/03 09:07:55;;;;;;;;;63.75;51.25;;;;;6.51;41.27;99489.75;4991903;28;8846;-73
2022/03/03 09:10:24;;;;;;;;;61.25;47.50;;;;;6.54;40.95;99484.63;4990985;28;9009;-75
2022/03/03 09:12:53;;;;;;;;;63.00;52.75;;;;;6.28;40.82;99486.81;5008536;28;9399;-75
2022/03/03 09:15:21;;;;;;;;;62.75;48.50;;;;;6.40;40.50;99480.97;4991485;28;8876;-73
2022/03/03 09:17:50;;;;;;;;;52.75;42.25;;;;;6.31;40.06;99479.09;5007292;28;8878;-75
2022/03/03 09:20:20;;;;;;;;;57.00;47.25;;;;;6.40;39.93;99476.63;4991493;28;9009;-73
2022/03/03 09:22:54;;;;;;;;;59.00;48.00;;;;;6.76;40.15;99478.00;4991444;28;8874;-74
2022/03/03 09:25:23;;;;;;;;;60.75;46.75;;;;;6.93;39.35;99479.97;5007366;28;8882;-73
2022/03/03 09:27:52;;;;;;;;;60.25;46.50;;;;;6.78;37.87;99473.72;4993100;28;8900;-73
2022/03/03 09:30:22;;;;;;;;;53.25;43.75;;;;;6.52;38.65;99475.97;4974103;28;8920;-75
2022/03/03 09:32:51;;;;;;;;;54.75;47.25;;;;;6.76;38.85;99475.44;4988239;28;9127;-75
2022/03/03 09:35:21;;;;;;;;;57.00;48.00;;;;;6.90;37.50;99465.25;4974637;28;8850;-77
2022/03/03 09:37:51;;;;;;;;;46.00;41.25;;;;;7.07;37.02;99462.00;5005090;28;8901;-74
2022/03/03 09:40:20;;;;;;;;;59.50;50.00;;;;;6.47;37.94;99476.75;4989989;28;8842;-73
2022/03/03 09:42:59;;;;;;;;;60.00;48.75;;;;;5.73;39.40;99462.56;5007659;28;8882;-76
2022/03/03 09:45:29;;;;;;;;;60.25;46.25;;;;;5.76;39.02;99463.47;4987009;28;8861;-76
2022/03/03 09:48:00;;;;;;;;;60.75;46.25;;;;;5.85;38.31;99463.66;5006274;28;8968;-75
2022/03/03 09:50:31;;;;;;;;;58.75;48.50;;;;;5.88;38.24;99465.44;5002648;28;8861;-75
2022/03/03 09:52:59;;;;;;;;;54.75;45.50;;;;;5.21;39.61;99471.09;4981783;28;8963;-75
2022/03/03 09:55:28;;;;;;;;;46.50;41.75;;;;;5.01;39.87;99485.31;4974016;28;9010;-74
2022/03/03 09:57:57;;;;;;;;;54.75;47.50;;;;;5.08;38.66;99474.28;4992853;28;8990;-73
2022/03/03 10:00:33;;;;;;;;;57.25;48.00;;;;;5.22;39.36;99472.84;4982250;28;8924;-74
2022/03/03 10:03:08;;;;;;;;;43.00;39.75;;;;;5.19;38.80;99467.59;4976690;28;8966;-75
2022/03/03 10:05:42;;;;;;;;;47.00;43.50;;;;;5.60;40.14;99458.91;5010963;28;8959;-76
2022/03/03 10:08:14;;;;;;;;;53.25;45.00;;;;;6.03;38.79;99457.97;4990569;28;8954;-74
2022/03/03 10:10:44;;;;;;;;;59.25;45.75;;;;;6.11;39.01;99454.63;4997793;28;8850;-74
2022/03/03 10:13:16;;;;;;;;;51.00;44.25;;;;;6.46;37.62;99449.97;5006822;28;8885;-73
2022/03/03 10:15:47;;;;;;;;;58.75;47.50;;;;;5.91;36.83;99439.59;4979973;28;9645;-74
2022/03/03 10:18:18;;;;;;;;;46.75;40.75;;;;;5.85;37.82;99445.53;4978140;28;9032;-77
2022/03/03 10:20:53;;;;;;;;;45.00;40.50;;;;;5.53;38.28;99454.47;5011706;28;9014;-72
2022/03/03 10:23:27;;;;;;;;;47.25;43.50;;;;;5.54;37.68;99454.50;5003405;28;9009;-74
2022/03/03 10:25:58;;;;;;;;;46.00;41.50;;;;;5.91;37.68;99449.06;4979067;28;8870;-74
2022/03/03 10:28:28;;;;;;;;;42.75;37.25;;;;;6.02;38.27;99443.25;4988714;28;9005;-74
2022/03/03 10:30:59;;;;;;;;;55.75;47.00;;;;;6.46;37.72;99429.22;4991890;28;9002;-74
2022/03/03 10:33:30;;;;;;;;;53.00;43.75;;;;;6.41;36.61;99431.78;4976406;28;8889;-74
2022/03/03 10:36:08;;;;;;;;;55.00;44.75;;;;;5.73;37.73;99439.28;4991315;28;9664;-77
2022/03/03 10:38:52;;;;;;;;;53.75;43.00;;;;;5.81;36.81;99435.13;4999377;28;9507;-75
2022/03/03 10:41:38;;;;;;;;;52.00;42.00;;;;;5.74;37.13;99439.31;5007798;28;9607;-75
2022/03/03 10:44:09;;;;;;;;;50.50;43.25;;;;;6.13;37.93;99425.31;4955909;28;8870;-74
2022/03/03 10:46:40;;;;;;;;;49.25;41.00;;;;;6.25;36.72;99415.13;4990787;28;8872;-74
2022/03/03 10:49:20;;;;;;;;;59.25;45.50;;;;;6.30;36.13;99412.63;4969585;28;9697;-75
2022/03/03 10:51:50;;;;;;;;;50.00;43.25;;;;;6.05;35.50;99421.75;4986127;28;8884;-76
2022/03/03 10:54:20;;;;;;;;;47.50;42.75;;;;;6.15;35.99;99415.00;4989154;28;8873;-75
2022/03/03 10:57:07;;;;;;;;;52.25;44.75;;;;;6.16;36.11;99411.53;4972226;28;8872;-74
2022/03/03 10:59:41;;;;;;;;;50.25;43.25;;;;;6.29;35.07;99407.41;4986608;28;9972;-75
2022/03/03 11:02:11;;;;;;;;;40.75;38.75;;;;;6.52;35.59;99405.13;4987046;28;8877;-74
2022/03/03 11:04:42;;;;;;;;;56.50;45.75;;;;;6.54;35.98;99401.75;4985920;28;8953;-74
2022/03/03 11:07:15;;;;;;;;;57.00;45.25;;;;;6.48;36.96;99390.41;4968536;28;8878;-75
2022/03/03 11:09:44;;;;;;;;;53.00;45.75;;;;;6.76;36.96;99386.44;4972805;28;8866;-74
2022/03/03 11:12:13;;;;;;;;;58.25;44.00;;;;;6.98;34.47;99390.19;4989254;28;9179;-75
2022/03/03 11:14:43;;;;;;;;;60.00;48.25;;;;;6.88;34.48;99398.69;4997395;28;8896;-76
2022/03/03 11:17:21;;;;;;;;;46.75;40.25;;;;;6.95;33.13;99387.53;4991731;28;9032;-74
2022/03/03 11:19:51;;;;;;;;;37.00;33.75;;;;;7.40;33.43;99378.50;4985899;28;8873;-75
2022/03/03 11:22:22;;;;;;;;;52.00;44.25;;;;;7.23;34.24;99384.38;5004856;28;8863;-74
2022/03/03 11:24:53;;;;;;;;;45.00;42.25;;;;;7.34;34.93;99378.44;4972422;28;8866;-74
2022/03/03 11:27:31;;;;;;;;;48.50;43.00;;;;;7.66;33.32;99367.50;4989473;28;8862;-74
2022/03/03 11:30:20;;;;;;;;;54.00;43.75;;;;;7.81;32.13;99363.28;4989246;28;8834;-73
2022/03/03 11:33:27;;;;;;;;;54.50;45.75;;;;;7.79;33.27;99343.38;4988324;28;8874;-74
2022/03/03 11:36:01;;;;;;;;;47.00;39.50;;;;;7.46;32.98;99354.34;4927004;28;8919;-75
2022/03/03 11:38:44;;;;;;;;;46.75;40.75;;;;;7.69;33.05;99350.19;4989718;28;8959;-75
2022/03/03 11:41:13;;;;;;;;;53.25;43.75;;;;;7.60;32.35;99348.41;5005958;28;9018;-74
2022/03/03 11:43:50;;;;;;;;;43.50;39.50;;;;;7.93;32.77;99346.06;4987412;28;8873;-74
2022/03/03 11:46:46;;;;;;;;;58.00;46.00;;;;;7.57;34.12;99338.00;5007177;28;8844;-75
2022/03/03 11:49:20;;;;;;;;;48.50;42.25;;;;;8.08;32.89;99340.09;5004431;28;8880;-78
2022/03/03 11:51:50;;;;;;;;;40.50;37.25;;;;;8.08;33.41;99334.91;4989328;28;8931;-73